map of YYH home
YYH - Airport
Location
City:  Taloyoak, Kitikmeot, Nunavut, Canada
Near (Alt.):Spence Bay
Name:Taloyoak Airport
ICAO:CYYH
IATA:YYH

Details
Type:Airport (Airfield)
Use:Public/Civil
Latitude:6932'48"N (69.546667)
Longitude:9334'37"W (-93.576943)
Elevation:90 ft (27 m)
Variation:12.24W (WMM2015 magnetic declination)
0.28 annual change
Runways:1
Longest:4009 ft (1222 m)

Time
Time Zone:UTC-6 (DST-5)
Local Time:

Weather
METAR:CYYH 161520Z 17008KT 15SM FEW070 SCT075 BKN100 M36/M40 A2978 RMK AC2AC2AC2 LST STFD OBS/NXT STFD OBS 170400 SLP090
TAF:CYYH 161738Z 1618/1706 FCST NOT AVBL DUE NO OBS
RMK NXT FCST BY 170000Z

Related Locations
Nearby:
Farthest:YWKS: 11760 mi / 18926 km
Wilkins Runway (Casey), Upper Peterson Glacier, AQ

Find:

   beyond  
but within

Other Information
Maps:
NOTAMs:
Links:
Sources:

  
  • flag of Canada
  • flag of Nunavut
  

Airport Diagram

Airport diagram for YYH

Airport diagram PDF

Sectional Chart

Flight Planning
at skyvector.com

Satellite Image

Google Maps Satellite view

 

Copyright © 2004-2019 Karl L. Swartz. All rights reserved.
The Great Circle Mapper name and logo are trademarks of the Great Circle Mapper.
All other trademarks mentioned herein belong to their respective owners.
Please see credits for attibutions and further copyright information.

  Follow gcmap on Facebook Follow gcmap on Twitter Follow gcmap on Google+ GCmap on LinkedIn

hCard Microformat

Geo Microformat